sensor_id;sensor_type;location;lat;lon;timestamp;P1;durP1;ratioP1;P2;durP2;ratioP2
846;SDS011;410;48.954;9.474;2023-05-07T00:01:49;5.07;;;4.57;;
846;SDS011;410;48.954;9.474;2023-05-07T00:03:53;5.70;;;5.20;;
846;SDS011;410;48.954;9.474;2023-05-07T00:05:57;6.13;;;5.60;;
846;SDS011;410;48.954;9.474;2023-05-07T00:08:00;6.23;;;5.20;;
846;SDS011;410;48.954;9.474;2023-05-07T00:10:03;8.27;;;5.70;;
846;SDS011;410;48.954;9.474;2023-05-07T00:12:09;14.53;;;5.77;;
846;SDS011;410;48.954;9.474;2023-05-07T00:14:12;6.37;;;4.93;;
846;SDS011;410;48.954;9.474;2023-05-07T00:16:15;7.00;;;5.17;;
846;SDS011;410;48.954;9.474;2023-05-07T00:18:19;5.37;;;4.87;;
846;SDS011;410;48.954;9.474;2023-05-07T00:20:24;7.17;;;4.97;;
846;SDS011;410;48.954;9.474;2023-05-07T00:22:27;5.50;;;4.97;;
846;SDS011;410;48.954;9.474;2023-05-07T00:24:31;6.63;;;4.60;;
846;SDS011;410;48.954;9.474;2023-05-07T00:26:34;5.70;;;5.20;;
846;SDS011;410;48.954;9.474;2023-05-07T00:28:39;6.77;;;5.00;;
846;SDS011;410;48.954;9.474;2023-05-07T00:30:42;5.20;;;4.47;;
846;SDS011;410;48.954;9.474;2023-05-07T00:32:46;6.70;;;4.90;;
846;SDS011;410;48.954;9.474;2023-05-07T00:34:50;5.17;;;4.37;;
846;SDS011;410;48.954;9.474;2023-05-07T00:36:53;4.93;;;4.40;;
846;SDS011;410;48.954;9.474;2023-05-07T00:38:58;5.10;;;4.37;;
846;SDS011;410;48.954;9.474;2023-05-07T00:41:03;5.13;;;4.40;;
846;SDS011;410;48.954;9.474;2023-05-07T00:43:07;7.83;;;4.40;;
846;SDS011;410;48.954;9.474;2023-05-07T00:45:11;5.23;;;4.23;;
846;SDS011;410;48.954;9.474;2023-05-07T00:47:15;4.67;;;4.20;;
846;SDS011;410;48.954;9.474;2023-05-07T00:49:18;5.13;;;4.07;;
846;SDS011;410;48.954;9.474;2023-05-07T00:51:21;4.60;;;4.20;;
846;SDS011;410;48.954;9.474;2023-05-07T00:53:24;6.63;;;4.47;;
846;SDS011;410;48.954;9.474;2023-05-07T00:55:28;5.70;;;4.17;;
846;SDS011;410;48.954;9.474;2023-05-07T00:57:32;8.70;;;4.33;;
846;SDS011;410;48.954;9.474;2023-05-07T00:59:36;6.97;;;3.93;;
846;SDS011;410;48.954;9.474;2023-05-07T01:01:41;4.57;;;4.07;;
846;SDS011;410;48.954;9.474;2023-05-07T01:03:45;4.90;;;4.40;;
846;SDS011;410;48.954;9.474;2023-05-07T01:05:49;8.40;;;4.60;;
846;SDS011;410;48.954;9.474;2023-05-07T01:07:53;5.07;;;3.70;;
846;SDS011;410;48.954;9.474;2023-05-07T01:09:58;4.20;;;3.70;;
846;SDS011;410;48.954;9.474;2023-05-07T01:12:02;4.73;;;3.93;;
846;SDS011;410;48.954;9.474;2023-05-07T01:14:06;4.30;;;3.90;;
846;SDS011;410;48.954;9.474;2023-05-07T01:16:10;4.27;;;3.87;;
846;SDS011;410;48.954;9.474;2023-05-07T01:18:15;15.10;;;4.43;;
846;SDS011;410;48.954;9.474;2023-05-07T01:20:19;5.13;;;3.70;;
846;SDS011;410;48.954;9.474;2023-05-07T01:22:29;9.23;;;4.17;;
846;SDS011;410;48.954;9.474;2023-05-07T01:24:34;5.50;;;4.30;;
846;SDS011;410;48.954;9.474;2023-05-07T01:26:42;4.70;;;4.30;;
846;SDS011;410;48.954;9.474;2023-05-07T01:28:48;5.30;;;4.10;;
846;SDS011;410;48.954;9.474;2023-05-07T01:30:52;4.27;;;3.87;;
846;SDS011;410;48.954;9.474;2023-05-07T01:32:59;7.63;;;4.03;;
846;SDS011;410;48.954;9.474;2023-05-07T01:35:07;4.30;;;3.90;;
846;SDS011;410;48.954;9.474;2023-05-07T01:37:14;5.20;;;4.27;;
846;SDS011;410;48.954;9.474;2023-05-07T01:39:19;6.10;;;3.80;;
846;SDS011;410;48.954;9.474;2023-05-07T01:41:23;7.40;;;4.03;;
846;SDS011;410;48.954;9.474;2023-05-07T01:43:27;5.83;;;4.30;;
846;SDS011;410;48.954;9.474;2023-05-07T01:45:31;8.30;;;4.70;;
846;SDS011;410;48.954;9.474;2023-05-07T01:47:35;6.23;;;4.53;;
846;SDS011;410;48.954;9.474;2023-05-07T01:49:41;4.47;;;4.07;;
846;SDS011;410;48.954;9.474;2023-05-07T01:51:45;7.10;;;4.60;;
846;SDS011;410;48.954;9.474;2023-05-07T01:53:49;4.70;;;4.30;;
846;SDS011;410;48.954;9.474;2023-05-07T01:55:56;8.10;;;4.80;;
846;SDS011;410;48.954;9.474;2023-05-07T01:58:00;4.80;;;4.00;;
846;SDS011;410;48.954;9.474;2023-05-07T02:00:04;4.43;;;4.03;;
846;SDS011;410;48.954;9.474;2023-05-07T02:02:16;7.43;;;5.00;;
846;SDS011;410;48.954;9.474;2023-05-07T02:04:21;5.87;;;4.40;;
846;SDS011;410;48.954;9.474;2023-05-07T02:06:26;4.60;;;4.20;;
846;SDS011;410;48.954;9.474;2023-05-07T02:08:34;4.77;;;4.10;;
846;SDS011;410;48.954;9.474;2023-05-07T02:10:38;5.47;;;4.60;;
846;SDS011;410;48.954;9.474;2023-05-07T02:12:43;4.70;;;4.20;;
846;SDS011;410;48.954;9.474;2023-05-07T02:14:47;4.60;;;4.20;;
846;SDS011;410;48.954;9.474;2023-05-07T02:16:51;7.43;;;4.30;;
846;SDS011;410;48.954;9.474;2023-05-07T02:18:55;4.87;;;4.37;;
846;SDS011;410;48.954;9.474;2023-05-07T02:20:58;6.60;;;4.40;;
846;SDS011;410;48.954;9.474;2023-05-07T02:23:02;5.93;;;4.60;;
846;SDS011;410;48.954;9.474;2023-05-07T02:25:06;4.60;;;4.20;;
846;SDS011;410;48.954;9.474;2023-05-07T02:27:10;8.00;;;4.40;;
846;SDS011;410;48.954;9.474;2023-05-07T02:29:16;4.43;;;4.03;;
846;SDS011;410;48.954;9.474;2023-05-07T02:31:20;4.70;;;4.23;;
846;SDS011;410;48.954;9.474;2023-05-07T02:33:23;5.50;;;4.70;;
846;SDS011;410;48.954;9.474;2023-05-07T02:35:28;5.40;;;4.20;;
846;SDS011;410;48.954;9.474;2023-05-07T02:37:31;5.40;;;4.90;;
846;SDS011;410;48.954;9.474;2023-05-07T02:39:35;6.00;;;4.63;;
846;SDS011;410;48.954;9.474;2023-05-07T02:41:39;5.67;;;5.17;;
846;SDS011;410;48.954;9.474;2023-05-07T02:43:43;5.07;;;4.40;;
846;SDS011;410;48.954;9.474;2023-05-07T02:45:48;4.83;;;4.40;;
846;SDS011;410;48.954;9.474;2023-05-07T02:47:53;6.83;;;4.37;;
846;SDS011;410;48.954;9.474;2023-05-07T02:49:57;5.97;;;4.67;;
846;SDS011;410;48.954;9.474;2023-05-07T02:52:02;4.30;;;3.93;;
846;SDS011;410;48.954;9.474;2023-05-07T02:54:05;8.87;;;4.67;;
846;SDS011;410;48.954;9.474;2023-05-07T02:56:09;7.33;;;4.80;;
846;SDS011;410;48.954;9.474;2023-05-07T02:58:13;5.60;;;4.80;;
846;SDS011;410;48.954;9.474;2023-05-07T03:00:17;6.50;;;4.40;;
846;SDS011;410;48.954;9.474;2023-05-07T03:02:43;6.20;;;4.63;;
846;SDS011;410;48.954;9.474;2023-05-07T03:04:47;5.10;;;4.30;;
846;SDS011;410;48.954;9.474;2023-05-07T03:06:50;12.43;;;4.40;;
846;SDS011;410;48.954;9.474;2023-05-07T03:08:53;5.67;;;4.40;;
846;SDS011;410;48.954;9.474;2023-05-07T03:10:56;5.50;;;5.00;;
846;SDS011;410;48.954;9.474;2023-05-07T03:13:00;5.30;;;4.30;;
846;SDS011;410;48.954;9.474;2023-05-07T03:15:04;4.77;;;4.23;;
846;SDS011;410;48.954;9.474;2023-05-07T03:17:08;4.53;;;4.00;;
846;SDS011;410;48.954;9.474;2023-05-07T03:19:12;5.13;;;4.40;;
846;SDS011;410;48.954;9.474;2023-05-07T03:21:16;6.00;;;4.20;;
846;SDS011;410;48.954;9.474;2023-05-07T03:23:19;5.13;;;4.73;;
846;SDS011;410;48.954;9.474;2023-05-07T03:25:25;8.03;;;5.07;;
846;SDS011;410;48.954;9.474;2023-05-07T03:27:28;5.20;;;4.70;;
846;SDS011;410;48.954;9.474;2023-05-07T03:29:31;5.57;;;5.00;;
846;SDS011;410;48.954;9.474;2023-05-07T03:31:34;5.03;;;4.63;;
846;SDS011;410;48.954;9.474;2023-05-07T03:33:42;5.40;;;4.93;;
846;SDS011;410;48.954;9.474;2023-05-07T03:35:54;6.63;;;5.13;;
846;SDS011;410;48.954;9.474;2023-05-07T03:37:59;8.17;;;4.60;;
846;SDS011;410;48.954;9.474;2023-05-07T03:40:07;5.70;;;4.50;;
846;SDS011;410;48.954;9.474;2023-05-07T03:42:20;6.37;;;4.70;;
846;SDS011;410;48.954;9.474;2023-05-07T03:44:25;6.17;;;4.73;;
846;SDS011;410;48.954;9.474;2023-05-07T03:46:28;5.60;;;5.10;;
846;SDS011;410;48.954;9.474;2023-05-07T03:48:32;5.50;;;5.00;;
846;SDS011;410;48.954;9.474;2023-05-07T03:50:35;5.40;;;4.80;;
846;SDS011;410;48.954;9.474;2023-05-07T03:52:41;6.50;;;5.00;;
846;SDS011;410;48.954;9.474;2023-05-07T03:54:45;5.57;;;5.00;;
846;SDS011;410;48.954;9.474;2023-05-07T03:56:49;5.67;;;4.80;;
846;SDS011;410;48.954;9.474;2023-05-07T03:58:52;5.93;;;5.27;;
846;SDS011;410;48.954;9.474;2023-05-07T04:00:56;5.40;;;4.60;;
846;SDS011;410;48.954;9.474;2023-05-07T04:03:02;9.40;;;5.40;;
846;SDS011;410;48.954;9.474;2023-05-07T04:05:06;6.33;;;4.57;;
846;SDS011;410;48.954;9.474;2023-05-07T04:07:13;10.27;;;4.73;;
846;SDS011;410;48.954;9.474;2023-05-07T04:09:20;6.63;;;4.60;;
846;SDS011;410;48.954;9.474;2023-05-07T04:11:23;5.67;;;4.73;;
846;SDS011;410;48.954;9.474;2023-05-07T04:13:27;4.73;;;4.33;;
846;SDS011;410;48.954;9.474;2023-05-07T04:15:30;6.47;;;4.50;;
846;SDS011;410;48.954;9.474;2023-05-07T04:17:33;5.60;;;4.97;;
846;SDS011;410;48.954;9.474;2023-05-07T04:19:36;5.40;;;4.67;;
846;SDS011;410;48.954;9.474;2023-05-07T04:21:40;7.03;;;4.80;;
846;SDS011;410;48.954;9.474;2023-05-07T04:23:43;6.83;;;4.90;;
846;SDS011;410;48.954;9.474;2023-05-07T04:25:49;5.00;;;4.50;;
846;SDS011;410;48.954;9.474;2023-05-07T04:27:57;5.77;;;4.77;;
846;SDS011;410;48.954;9.474;2023-05-07T04:30:04;5.33;;;4.83;;
846;SDS011;410;48.954;9.474;2023-05-07T04:32:12;5.27;;;4.77;;
846;SDS011;410;48.954;9.474;2023-05-07T04:34:16;5.73;;;5.13;;
846;SDS011;410;48.954;9.474;2023-05-07T04:36:19;5.80;;;5.10;;
846;SDS011;410;48.954;9.474;2023-05-07T04:38:32;5.40;;;4.90;;
846;SDS011;410;48.954;9.474;2023-05-07T04:40:37;8.93;;;4.70;;
846;SDS011;410;48.954;9.474;2023-05-07T04:42:43;6.97;;;4.77;;
846;SDS011;410;48.954;9.474;2023-05-07T04:44:47;6.73;;;5.20;;
846;SDS011;410;48.954;9.474;2023-05-07T04:46:50;7.83;;;4.90;;
846;SDS011;410;48.954;9.474;2023-05-07T04:48:54;5.13;;;4.63;;
846;SDS011;410;48.954;9.474;2023-05-07T04:50:57;5.73;;;5.20;;
846;SDS011;410;48.954;9.474;2023-05-07T04:53:01;6.40;;;4.70;;
846;SDS011;410;48.954;9.474;2023-05-07T04:55:05;10.53;;;7.60;;
846;SDS011;410;48.954;9.474;2023-05-07T04:57:12;6.90;;;5.60;;
846;SDS011;410;48.954;9.474;2023-05-07T04:59:17;6.10;;;5.00;;
846;SDS011;410;48.954;9.474;2023-05-07T05:01:20;5.63;;;5.03;;
846;SDS011;410;48.954;9.474;2023-05-07T05:03:24;7.30;;;5.20;;
846;SDS011;410;48.954;9.474;2023-05-07T05:05:27;14.30;;;5.50;;
846;SDS011;410;48.954;9.474;2023-05-07T05:07:31;5.47;;;4.53;;
846;SDS011;410;48.954;9.474;2023-05-07T05:09:34;5.97;;;5.20;;
846;SDS011;410;48.954;9.474;2023-05-07T05:11:37;6.87;;;5.10;;
846;SDS011;410;48.954;9.474;2023-05-07T05:13:41;8.00;;;5.50;;
846;SDS011;410;48.954;9.474;2023-05-07T05:15:51;5.60;;;4.87;;
846;SDS011;410;48.954;9.474;2023-05-07T05:17:55;6.13;;;4.83;;
846;SDS011;410;48.954;9.474;2023-05-07T05:20:01;5.10;;;4.60;;
846;SDS011;410;48.954;9.474;2023-05-07T05:22:05;5.00;;;4.47;;
846;SDS011;410;48.954;9.474;2023-05-07T05:24:08;5.53;;;5.03;;
846;SDS011;410;48.954;9.474;2023-05-07T05:26:12;5.80;;;5.30;;
846;SDS011;410;48.954;9.474;2023-05-07T05:28:16;5.50;;;5.00;;
846;SDS011;410;48.954;9.474;2023-05-07T05:30:19;5.00;;;4.60;;
846;SDS011;410;48.954;9.474;2023-05-07T05:32:25;5.73;;;5.13;;
846;SDS011;410;48.954;9.474;2023-05-07T05:34:30;5.80;;;4.80;;
846;SDS011;410;48.954;9.474;2023-05-07T05:36:35;5.33;;;4.77;;
846;SDS011;410;48.954;9.474;2023-05-07T05:38:38;7.53;;;5.50;;
846;SDS011;410;48.954;9.474;2023-05-07T05:40:42;5.87;;;4.50;;
846;SDS011;410;48.954;9.474;2023-05-07T05:42:45;5.17;;;4.50;;
846;SDS011;410;48.954;9.474;2023-05-07T05:44:49;5.30;;;4.47;;
846;SDS011;410;48.954;9.474;2023-05-07T05:46:52;5.20;;;4.50;;
846;SDS011;410;48.954;9.474;2023-05-07T05:49:00;5.27;;;4.50;;
846;SDS011;410;48.954;9.474;2023-05-07T05:51:05;5.30;;;4.80;;
846;SDS011;410;48.954;9.474;2023-05-07T05:53:08;5.90;;;4.43;;
846;SDS011;410;48.954;9.474;2023-05-07T05:55:12;5.23;;;4.23;;
846;SDS011;410;48.954;9.474;2023-05-07T05:57:15;5.47;;;4.20;;
846;SDS011;410;48.954;9.474;2023-05-07T05:59:19;4.60;;;3.23;;
846;SDS011;410;48.954;9.474;2023-05-07T06:01:23;3.80;;;3.23;;
846;SDS011;410;48.954;9.474;2023-05-07T06:03:28;5.50;;;4.40;;
846;SDS011;410;48.954;9.474;2023-05-07T06:05:36;5.70;;;4.33;;
846;SDS011;410;48.954;9.474;2023-05-07T06:07:39;4.93;;;4.47;;
846;SDS011;410;48.954;9.474;2023-05-07T06:09:43;5.70;;;3.93;;
846;SDS011;410;48.954;9.474;2023-05-07T06:11:46;4.30;;;3.77;;
846;SDS011;410;48.954;9.474;2023-05-07T06:13:49;5.60;;;4.00;;
846;SDS011;410;48.954;9.474;2023-05-07T06:15:53;4.43;;;3.80;;
846;SDS011;410;48.954;9.474;2023-05-07T06:17:56;4.70;;;4.20;;
846;SDS011;410;48.954;9.474;2023-05-07T06:19:59;4.97;;;4.07;;
846;SDS011;410;48.954;9.474;2023-05-07T06:22:04;3.60;;;3.30;;
846;SDS011;410;48.954;9.474;2023-05-07T06:24:08;4.20;;;3.50;;
846;SDS011;410;48.954;9.474;2023-05-07T06:26:13;5.57;;;4.27;;
846;SDS011;410;48.954;9.474;2023-05-07T06:28:20;4.37;;;3.97;;
846;SDS011;410;48.954;9.474;2023-05-07T06:30:24;4.47;;;4.07;;
846;SDS011;410;48.954;9.474;2023-05-07T06:32:29;3.83;;;3.53;;
846;SDS011;410;48.954;9.474;2023-05-07T06:34:32;5.87;;;3.97;;
846;SDS011;410;48.954;9.474;2023-05-07T06:36:35;6.87;;;4.03;;
846;SDS011;410;48.954;9.474;2023-05-07T06:38:49;4.17;;;3.60;;
846;SDS011;410;48.954;9.474;2023-05-07T06:40:52;5.40;;;3.50;;
846;SDS011;410;48.954;9.474;2023-05-07T06:42:57;4.07;;;3.67;;
846;SDS011;410;48.954;9.474;2023-05-07T06:45:22;3.93;;;3.63;;
846;SDS011;410;48.954;9.474;2023-05-07T06:47:27;3.73;;;3.40;;
846;SDS011;410;48.954;9.474;2023-05-07T06:49:30;3.83;;;3.40;;
846;SDS011;410;48.954;9.474;2023-05-07T06:51:34;3.80;;;3.30;;
846;SDS011;410;48.954;9.474;2023-05-07T06:53:37;5.10;;;3.77;;
846;SDS011;410;48.954;9.474;2023-05-07T06:55:45;3.67;;;3.37;;
846;SDS011;410;48.954;9.474;2023-05-07T06:57:50;4.73;;;4.33;;
846;SDS011;410;48.954;9.474;2023-05-07T06:59:55;4.87;;;3.57;;
846;SDS011;410;48.954;9.474;2023-05-07T07:01:58;4.13;;;3.60;;
846;SDS011;410;48.954;9.474;2023-05-07T07:04:02;3.93;;;3.20;;
846;SDS011;410;48.954;9.474;2023-05-07T07:06:05;4.00;;;3.43;;
846;SDS011;410;48.954;9.474;2023-05-07T07:08:09;5.37;;;4.20;;
846;SDS011;410;48.954;9.474;2023-05-07T07:10:13;4.13;;;3.47;;
846;SDS011;410;48.954;9.474;2023-05-07T07:12:17;4.63;;;3.40;;
846;SDS011;410;48.954;9.474;2023-05-07T07:14:21;4.93;;;3.47;;
846;SDS011;410;48.954;9.474;2023-05-07T07:16:26;3.47;;;3.17;;
846;SDS011;410;48.954;9.474;2023-05-07T07:18:29;5.00;;;3.50;;
846;SDS011;410;48.954;9.474;2023-05-07T07:20:33;3.87;;;3.50;;
846;SDS011;410;48.954;9.474;2023-05-07T07:22:37;4.70;;;3.53;;
846;SDS011;410;48.954;9.474;2023-05-07T07:24:41;4.60;;;3.80;;
846;SDS011;410;48.954;9.474;2023-05-07T07:26:46;3.60;;;3.30;;
846;SDS011;410;48.954;9.474;2023-05-07T07:28:52;5.90;;;3.60;;
846;SDS011;410;48.954;9.474;2023-05-07T07:30:56;5.40;;;3.50;;
846;SDS011;410;48.954;9.474;2023-05-07T07:32:59;3.60;;;3.30;;
846;SDS011;410;48.954;9.474;2023-05-07T07:35:08;4.23;;;3.13;;
846;SDS011;410;48.954;9.474;2023-05-07T07:37:13;3.20;;;2.90;;
846;SDS011;410;48.954;9.474;2023-05-07T07:39:16;3.50;;;3.20;;
846;SDS011;410;48.954;9.474;2023-05-07T07:41:21;4.17;;;2.90;;
846;SDS011;410;48.954;9.474;2023-05-07T07:43:25;3.00;;;2.70;;
846;SDS011;410;48.954;9.474;2023-05-07T07:45:30;3.80;;;3.00;;
846;SDS011;410;48.954;9.474;2023-05-07T07:47:34;3.87;;;3.33;;
846;SDS011;410;48.954;9.474;2023-05-07T07:49:38;5.30;;;3.47;;
846;SDS011;410;48.954;9.474;2023-05-07T07:51:43;3.03;;;2.73;;
846;SDS011;410;48.954;9.474;2023-05-07T07:53:47;3.23;;;2.90;;
846;SDS011;410;48.954;9.474;2023-05-07T07:55:52;3.30;;;3.00;;
846;SDS011;410;48.954;9.474;2023-05-07T07:58:02;4.43;;;3.60;;
846;SDS011;410;48.954;9.474;2023-05-07T08:00:06;3.70;;;3.33;;
846;SDS011;410;48.954;9.474;2023-05-07T08:02:18;3.10;;;2.80;;
846;SDS011;410;48.954;9.474;2023-05-07T08:04:23;6.10;;;3.30;;
846;SDS011;410;48.954;9.474;2023-05-07T08:06:29;3.63;;;3.00;;
846;SDS011;410;48.954;9.474;2023-05-07T08:08:32;4.27;;;2.83;;
846;SDS011;410;48.954;9.474;2023-05-07T08:10:36;4.13;;;2.97;;
846;SDS011;410;48.954;9.474;2023-05-07T08:12:47;4.10;;;3.10;;
846;SDS011;410;48.954;9.474;2023-05-07T08:14:51;4.23;;;3.03;;
846;SDS011;410;48.954;9.474;2023-05-07T08:16:54;4.37;;;3.23;;
846;SDS011;410;48.954;9.474;2023-05-07T08:18:59;3.30;;;3.00;;
846;SDS011;410;48.954;9.474;2023-05-07T08:21:03;3.20;;;2.90;;
846;SDS011;410;48.954;9.474;2023-05-07T08:23:06;3.60;;;3.07;;
846;SDS011;410;48.954;9.474;2023-05-07T08:25:12;3.83;;;3.07;;
846;SDS011;410;48.954;9.474;2023-05-07T08:27:15;3.43;;;2.80;;
846;SDS011;410;48.954;9.474;2023-05-07T08:29:18;3.50;;;3.20;;
846;SDS011;410;48.954;9.474;2023-05-07T08:31:21;4.40;;;3.13;;
846;SDS011;410;48.954;9.474;2023-05-07T08:33:25;3.07;;;2.87;;
846;SDS011;410;48.954;9.474;2023-05-07T08:35:29;3.20;;;2.87;;
846;SDS011;410;48.954;9.474;2023-05-07T08:37:33;3.40;;;3.10;;
846;SDS011;410;48.954;9.474;2023-05-07T08:39:36;3.90;;;3.13;;
846;SDS011;410;48.954;9.474;2023-05-07T08:41:44;4.20;;;3.10;;
846;SDS011;410;48.954;9.474;2023-05-07T08:43:48;6.80;;;3.23;;
846;SDS011;410;48.954;9.474;2023-05-07T08:45:53;4.00;;;3.27;;
846;SDS011;410;48.954;9.474;2023-05-07T08:48:02;4.40;;;2.63;;
846;SDS011;410;48.954;9.474;2023-05-07T08:50:09;4.07;;;3.20;;
846;SDS011;410;48.954;9.474;2023-05-07T08:52:15;3.03;;;2.73;;
846;SDS011;410;48.954;9.474;2023-05-07T08:54:19;3.50;;;3.03;;
846;SDS011;410;48.954;9.474;2023-05-07T08:56:23;4.77;;;3.10;;
846;SDS011;410;48.954;9.474;2023-05-07T08:58:28;4.27;;;2.80;;
846;SDS011;410;48.954;9.474;2023-05-07T09:00:32;3.93;;;2.87;;
846;SDS011;410;48.954;9.474;2023-05-07T09:02:36;3.03;;;2.80;;
846;SDS011;410;48.954;9.474;2023-05-07T09:04:41;4.03;;;2.67;;
846;SDS011;410;48.954;9.474;2023-05-07T09:06:45;4.93;;;2.60;;
846;SDS011;410;48.954;9.474;2023-05-07T09:08:51;3.03;;;2.83;;
846;SDS011;410;48.954;9.474;2023-05-07T09:10:57;2.80;;;2.60;;
846;SDS011;410;48.954;9.474;2023-05-07T09:13:00;3.77;;;2.87;;
846;SDS011;410;48.954;9.474;2023-05-07T09:15:04;3.67;;;2.67;;
846;SDS011;410;48.954;9.474;2023-05-07T09:17:09;3.37;;;2.90;;
846;SDS011;410;48.954;9.474;2023-05-07T09:19:12;3.30;;;2.80;;
846;SDS011;410;48.954;9.474;2023-05-07T09:21:19;3.00;;;2.70;;
846;SDS011;410;48.954;9.474;2023-05-07T09:23:25;4.03;;;3.40;;
846;SDS011;410;48.954;9.474;2023-05-07T09:25:30;2.80;;;2.50;;
846;SDS011;410;48.954;9.474;2023-05-07T09:27:40;3.47;;;2.70;;
846;SDS011;410;48.954;9.474;2023-05-07T09:29:44;3.67;;;2.37;;
846;SDS011;410;48.954;9.474;2023-05-07T09:31:49;4.17;;;2.80;;
846;SDS011;410;48.954;9.474;2023-05-07T09:33:53;3.00;;;2.70;;
846;SDS011;410;48.954;9.474;2023-05-07T09:36:01;2.97;;;2.20;;
846;SDS011;410;48.954;9.474;2023-05-07T09:38:06;3.47;;;2.57;;
846;SDS011;410;48.954;9.474;2023-05-07T09:40:19;3.80;;;2.67;;
846;SDS011;410;48.954;9.474;2023-05-07T09:42:25;3.30;;;2.60;;
846;SDS011;410;48.954;9.474;2023-05-07T09:44:33;3.50;;;2.63;;
846;SDS011;410;48.954;9.474;2023-05-07T09:46:38;4.00;;;2.90;;
846;SDS011;410;48.954;9.474;2023-05-07T09:48:50;5.07;;;2.70;;
846;SDS011;410;48.954;9.474;2023-05-07T09:50:56;4.60;;;2.77;;
846;SDS011;410;48.954;9.474;2023-05-07T09:53:04;4.00;;;3.13;;
846;SDS011;410;48.954;9.474;2023-05-07T09:55:07;4.00;;;2.67;;
846;SDS011;410;48.954;9.474;2023-05-07T09:57:12;2.57;;;2.37;;
846;SDS011;410;48.954;9.474;2023-05-07T09:59:20;4.17;;;2.37;;
846;SDS011;410;48.954;9.474;2023-05-07T10:01:24;2.80;;;2.47;;
846;SDS011;410;48.954;9.474;2023-05-07T10:03:28;3.63;;;2.30;;
846;SDS011;410;48.954;9.474;2023-05-07T10:05:38;3.03;;;2.10;;
846;SDS011;410;48.954;9.474;2023-05-07T10:07:42;3.43;;;2.70;;
846;SDS011;410;48.954;9.474;2023-05-07T10:09:46;2.60;;;2.40;;
846;SDS011;410;48.954;9.474;2023-05-07T10:11:58;4.80;;;2.43;;
846;SDS011;410;48.954;9.474;2023-05-07T10:14:03;3.20;;;2.27;;
846;SDS011;410;48.954;9.474;2023-05-07T10:16:09;2.60;;;2.40;;
846;SDS011;410;48.954;9.474;2023-05-07T10:18:18;4.00;;;2.63;;
846;SDS011;410;48.954;9.474;2023-05-07T10:20:25;4.10;;;2.80;;
846;SDS011;410;48.954;9.474;2023-05-07T10:22:30;6.30;;;3.13;;
846;SDS011;410;48.954;9.474;2023-05-07T10:24:35;4.00;;;2.60;;
846;SDS011;410;48.954;9.474;2023-05-07T10:26:46;3.53;;;2.87;;
846;SDS011;410;48.954;9.474;2023-05-07T10:28:55;6.00;;;2.97;;
846;SDS011;410;48.954;9.474;2023-05-07T10:31:07;4.20;;;2.60;;
846;SDS011;410;48.954;9.474;2023-05-07T10:33:23;2.03;;;1.83;;
846;SDS011;410;48.954;9.474;2023-05-07T10:35:30;3.30;;;2.90;;
846;SDS011;410;48.954;9.474;2023-05-07T10:37:37;4.33;;;3.07;;
846;SDS011;410;48.954;9.474;2023-05-07T10:39:41;2.73;;;2.30;;
846;SDS011;410;48.954;9.474;2023-05-07T10:41:44;3.23;;;2.37;;
846;SDS011;410;48.954;9.474;2023-05-07T10:43:47;3.93;;;2.60;;
846;SDS011;410;48.954;9.474;2023-05-07T10:46:11;4.80;;;2.70;;
846;SDS011;410;48.954;9.474;2023-05-07T10:48:23;4.33;;;2.87;;
846;SDS011;410;48.954;9.474;2023-05-07T10:50:35;3.47;;;2.63;;
846;SDS011;410;48.954;9.474;2023-05-07T10:52:40;2.40;;;2.13;;
846;SDS011;410;48.954;9.474;2023-05-07T10:55:18;2.80;;;2.53;;
846;SDS011;410;48.954;9.474;2023-05-07T10:57:50;2.90;;;2.60;;
846;SDS011;410;48.954;9.474;2023-05-07T10:59:59;3.50;;;2.80;;
846;SDS011;410;48.954;9.474;2023-05-07T11:02:07;2.77;;;2.57;;
846;SDS011;410;48.954;9.474;2023-05-07T11:04:23;2.70;;;2.50;;
846;SDS011;410;48.954;9.474;2023-05-07T11:12:09;4.10;;;2.83;;
846;SDS011;410;48.954;9.474;2023-05-07T11:17:08;2.77;;;2.53;;
846;SDS011;410;48.954;9.474;2023-05-07T11:19:13;3.27;;;2.70;;
846;SDS011;410;48.954;9.474;2023-05-07T11:21:35;3.03;;;2.60;;
846;SDS011;410;48.954;9.474;2023-05-07T11:23:55;3.20;;;2.90;;
846;SDS011;410;48.954;9.474;2023-05-07T11:26:14;5.60;;;3.10;;
846;SDS011;410;48.954;9.474;2023-05-07T11:28:19;3.53;;;2.53;;
846;SDS011;410;48.954;9.474;2023-05-07T11:30:32;3.63;;;2.70;;
846;SDS011;410;48.954;9.474;2023-05-07T11:32:37;3.17;;;2.90;;
846;SDS011;410;48.954;9.474;2023-05-07T11:34:40;4.47;;;3.00;;
846;SDS011;410;48.954;9.474;2023-05-07T11:36:45;2.63;;;2.43;;
846;SDS011;410;48.954;9.474;2023-05-07T11:38:51;3.10;;;2.80;;
846;SDS011;410;48.954;9.474;2023-05-07T11:40:55;3.30;;;3.00;;
846;SDS011;410;48.954;9.474;2023-05-07T11:43:08;2.93;;;2.50;;
846;SDS011;410;48.954;9.474;2023-05-07T11:45:14;4.53;;;2.73;;
846;SDS011;410;48.954;9.474;2023-05-07T11:47:26;5.07;;;3.10;;
846;SDS011;410;48.954;9.474;2023-05-07T11:49:29;4.07;;;3.20;;
846;SDS011;410;48.954;9.474;2023-05-07T11:51:32;2.87;;;2.67;;
846;SDS011;410;48.954;9.474;2023-05-07T11:53:38;4.80;;;2.60;;
846;SDS011;410;48.954;9.474;2023-05-07T11:55:42;4.13;;;2.67;;
846;SDS011;410;48.954;9.474;2023-05-07T11:57:45;5.50;;;2.83;;
846;SDS011;410;48.954;9.474;2023-05-07T11:59:52;3.40;;;2.93;;
846;SDS011;410;48.954;9.474;2023-05-07T12:01:56;2.40;;;2.20;;
846;SDS011;410;48.954;9.474;2023-05-07T12:04:02;2.77;;;2.57;;
846;SDS011;410;48.954;9.474;2023-05-07T12:06:07;3.43;;;2.47;;
846;SDS011;410;48.954;9.474;2023-05-07T12:08:13;3.10;;;2.80;;
846;SDS011;410;48.954;9.474;2023-05-07T12:10:18;2.90;;;2.60;;
846;SDS011;410;48.954;9.474;2023-05-07T12:12:22;3.47;;;3.00;;
846;SDS011;410;48.954;9.474;2023-05-07T12:14:27;3.00;;;2.70;;
846;SDS011;410;48.954;9.474;2023-05-07T12:16:30;2.70;;;2.30;;
846;SDS011;410;48.954;9.474;2023-05-07T12:18:34;5.93;;;2.83;;
846;SDS011;410;48.954;9.474;2023-05-07T12:20:38;2.93;;;2.63;;
846;SDS011;410;48.954;9.474;2023-05-07T12:22:42;4.50;;;2.80;;
846;SDS011;410;48.954;9.474;2023-05-07T12:24:45;3.13;;;2.20;;
846;SDS011;410;48.954;9.474;2023-05-07T12:26:51;2.93;;;2.40;;
846;SDS011;410;48.954;9.474;2023-05-07T12:28:54;4.23;;;2.70;;
846;SDS011;410;48.954;9.474;2023-05-07T12:30:57;3.40;;;2.87;;
846;SDS011;410;48.954;9.474;2023-05-07T12:33:01;2.63;;;2.43;;
846;SDS011;410;48.954;9.474;2023-05-07T12:35:05;2.70;;;2.47;;
846;SDS011;410;48.954;9.474;2023-05-07T12:37:09;2.80;;;2.50;;
846;SDS011;410;48.954;9.474;2023-05-07T12:39:12;3.20;;;2.50;;
846;SDS011;410;48.954;9.474;2023-05-07T12:41:16;3.30;;;2.60;;
846;SDS011;410;48.954;9.474;2023-05-07T12:43:21;4.77;;;2.80;;
846;SDS011;410;48.954;9.474;2023-05-07T12:45:26;2.70;;;2.33;;
846;SDS011;410;48.954;9.474;2023-05-07T12:47:29;2.97;;;2.57;;
846;SDS011;410;48.954;9.474;2023-05-07T12:49:34;2.70;;;2.50;;
846;SDS011;410;48.954;9.474;2023-05-07T12:51:39;2.80;;;2.60;;
846;SDS011;410;48.954;9.474;2023-05-07T12:53:42;2.77;;;2.50;;
846;SDS011;410;48.954;9.474;2023-05-07T12:55:46;3.43;;;2.70;;
846;SDS011;410;48.954;9.474;2023-05-07T12:57:51;3.60;;;2.70;;
846;SDS011;410;48.954;9.474;2023-05-07T12:59:57;3.23;;;2.93;;
846;SDS011;410;48.954;9.474;2023-05-07T13:02:00;3.33;;;2.70;;
846;SDS011;410;48.954;9.474;2023-05-07T13:04:04;3.80;;;2.80;;
846;SDS011;410;48.954;9.474;2023-05-07T13:06:08;3.30;;;2.73;;
846;SDS011;410;48.954;9.474;2023-05-07T13:08:22;4.20;;;3.00;;
846;SDS011;410;48.954;9.474;2023-05-07T13:10:26;4.03;;;2.90;;
846;SDS011;410;48.954;9.474;2023-05-07T13:12:30;3.77;;;3.20;;
846;SDS011;410;48.954;9.474;2023-05-07T13:14:33;3.50;;;3.07;;
846;SDS011;410;48.954;9.474;2023-05-07T13:16:38;3.70;;;3.27;;
846;SDS011;410;48.954;9.474;2023-05-07T13:18:41;4.73;;;3.80;;
846;SDS011;410;48.954;9.474;2023-05-07T13:20:47;4.77;;;4.10;;
846;SDS011;410;48.954;9.474;2023-05-07T13:22:50;4.27;;;3.77;;
846;SDS011;410;48.954;9.474;2023-05-07T13:24:53;6.47;;;4.00;;
846;SDS011;410;48.954;9.474;2023-05-07T13:26:56;4.50;;;3.70;;
846;SDS011;410;48.954;9.474;2023-05-07T13:29:00;4.53;;;4.07;;
846;SDS011;410;48.954;9.474;2023-05-07T13:31:03;4.23;;;3.83;;
846;SDS011;410;48.954;9.474;2023-05-07T13:33:07;4.63;;;4.07;;